< < Back
Terminal Aerodrome Forecast


Current Version              Previous Versions:   1  2  3  4  5  6  7  8  9  

Terminal Aerodrome Forecast

424
FTUS44 KHUN 202320
TAFHSV
TAF
KHSV 202320Z 2100/2124 VRB03KT P6SM SCT150
     FM210200 VRB02KT P6SM SKC
     FM211400 34008KT P6SM SKC=

Latest METAR

279
SAUS80 KWBC 211000 RRC
MTRHSV
METAR KHSV 210953Z AUTO 00000KT 7SM FEW002 10/08 A3003 RMK AO2 SLP166
T01000083 $


USA.gov is the U.S. government's official web portal to all federal, state and local government web resources and services.